sensor_id;sensor_type;location;lat;lon;timestamp;P1;durP1;ratioP1;P2;durP2;ratioP2
44842;SDS011;31884;52.538;13.820;2023-08-01T00:00:26;5.68;;;3.38;;
44842;SDS011;31884;52.538;13.820;2023-08-01T00:02:51;6.03;;;3.70;;
44842;SDS011;31884;52.538;13.820;2023-08-01T00:05:17;4.15;;;2.92;;
44842;SDS011;31884;52.538;13.820;2023-08-01T00:07:42;4.18;;;2.80;;
44842;SDS011;31884;52.538;13.820;2023-08-01T00:10:08;5.40;;;3.38;;
44842;SDS011;31884;52.538;13.820;2023-08-01T00:12:34;5.80;;;2.95;;
44842;SDS011;31884;52.538;13.820;2023-08-01T00:14:59;5.65;;;3.17;;
44842;SDS011;31884;52.538;13.820;2023-08-01T00:17:25;3.72;;;3.08;;
44842;SDS011;31884;52.538;13.820;2023-08-01T00:19:50;5.38;;;3.85;;
44842;SDS011;31884;52.538;13.820;2023-08-01T00:22:16;4.18;;;3.05;;
44842;SDS011;31884;52.538;13.820;2023-08-01T00:24:41;4.30;;;3.28;;
44842;SDS011;31884;52.538;13.820;2023-08-01T00:27:07;8.07;;;3.65;;
44842;SDS011;31884;52.538;13.820;2023-08-01T00:29:34;4.82;;;3.22;;
44842;SDS011;31884;52.538;13.820;2023-08-01T00:32:00;8.45;;;3.30;;
44842;SDS011;31884;52.538;13.820;2023-08-01T00:34:26;6.53;;;3.60;;
44842;SDS011;31884;52.538;13.820;2023-08-01T00:36:51;6.97;;;3.20;;
44842;SDS011;31884;52.538;13.820;2023-08-01T00:39:16;3.88;;;2.60;;
44842;SDS011;31884;52.538;13.820;2023-08-01T00:41:42;5.85;;;3.80;;
44842;SDS011;31884;52.538;13.820;2023-08-01T00:44:07;4.55;;;3.53;;
44842;SDS011;31884;52.538;13.820;2023-08-01T00:46:33;6.88;;;3.70;;
44842;SDS011;31884;52.538;13.820;2023-08-01T00:48:59;5.97;;;3.13;;
44842;SDS011;31884;52.538;13.820;2023-08-01T00:51:25;6.57;;;3.65;;
44842;SDS011;31884;52.538;13.820;2023-08-01T00:53:51;8.40;;;3.95;;
44842;SDS011;31884;52.538;13.820;2023-08-01T00:56:17;3.53;;;2.33;;
44842;SDS011;31884;52.538;13.820;2023-08-01T00:58:43;6.75;;;3.17;;
44842;SDS011;31884;52.538;13.820;2023-08-01T01:01:09;4.60;;;2.50;;
44842;SDS011;31884;52.538;13.820;2023-08-01T01:03:34;11.45;;;3.20;;
44842;SDS011;31884;52.538;13.820;2023-08-01T01:06:02;4.55;;;3.10;;
44842;SDS011;31884;52.538;13.820;2023-08-01T01:08:50;6.40;;;3.40;;
44842;SDS011;31884;52.538;13.820;2023-08-01T01:11:16;5.88;;;2.88;;
44842;SDS011;31884;52.538;13.820;2023-08-01T01:13:41;4.63;;;3.05;;
44842;SDS011;31884;52.538;13.820;2023-08-01T01:16:07;4.03;;;2.63;;
44842;SDS011;31884;52.538;13.820;2023-08-01T01:18:32;6.88;;;3.05;;
44842;SDS011;31884;52.538;13.820;2023-08-01T01:20:58;5.35;;;3.72;;
44842;SDS011;31884;52.538;13.820;2023-08-01T01:23:24;6.40;;;2.67;;
44842;SDS011;31884;52.538;13.820;2023-08-01T01:25:51;5.90;;;2.75;;
44842;SDS011;31884;52.538;13.820;2023-08-01T01:28:19;4.63;;;3.10;;
44842;SDS011;31884;52.538;13.820;2023-08-01T01:30:45;3.75;;;2.50;;
44842;SDS011;31884;52.538;13.820;2023-08-01T01:33:12;3.15;;;2.45;;
44842;SDS011;31884;52.538;13.820;2023-08-01T01:35:39;6.32;;;2.92;;
44842;SDS011;31884;52.538;13.820;2023-08-01T01:38:05;4.28;;;2.72;;
44842;SDS011;31884;52.538;13.820;2023-08-01T01:40:31;5.63;;;2.88;;
44842;SDS011;31884;52.538;13.820;2023-08-01T01:42:58;3.70;;;2.80;;
44842;SDS011;31884;52.538;13.820;2023-08-01T01:45:24;5.88;;;3.25;;
44842;SDS011;31884;52.538;13.820;2023-08-01T01:47:50;4.82;;;2.95;;
44842;SDS011;31884;52.538;13.820;2023-08-01T01:50:16;4.47;;;3.00;;
44842;SDS011;31884;52.538;13.820;2023-08-01T01:52:42;3.70;;;2.65;;
44842;SDS011;31884;52.538;13.820;2023-08-01T01:55:08;5.50;;;3.47;;
44842;SDS011;31884;52.538;13.820;2023-08-01T01:57:34;5.30;;;2.85;;
44842;SDS011;31884;52.538;13.820;2023-08-01T02:00:01;6.75;;;3.00;;
44842;SDS011;31884;52.538;13.820;2023-08-01T02:02:27;5.55;;;3.40;;
44842;SDS011;31884;52.538;13.820;2023-08-01T02:04:52;6.60;;;3.45;;
44842;SDS011;31884;52.538;13.820;2023-08-01T02:07:18;5.38;;;2.83;;
44842;SDS011;31884;52.538;13.820;2023-08-01T02:09:43;7.95;;;3.03;;
44842;SDS011;31884;52.538;13.820;2023-08-01T02:12:09;4.38;;;2.70;;
44842;SDS011;31884;52.538;13.820;2023-08-01T02:14:35;6.20;;;3.70;;
44842;SDS011;31884;52.538;13.820;2023-08-01T02:17:01;5.88;;;3.42;;
44842;SDS011;31884;52.538;13.820;2023-08-01T02:19:27;5.35;;;3.78;;
44842;SDS011;31884;52.538;13.820;2023-08-01T02:21:53;5.70;;;3.20;;
44842;SDS011;31884;52.538;13.820;2023-08-01T02:24:18;5.22;;;3.85;;
44842;SDS011;31884;52.538;13.820;2023-08-01T02:26:44;6.90;;;3.58;;
44842;SDS011;31884;52.538;13.820;2023-08-01T02:29:09;3.95;;;3.30;;
44842;SDS011;31884;52.538;13.820;2023-08-01T02:31:35;3.75;;;3.15;;
44842;SDS011;31884;52.538;13.820;2023-08-01T02:34:00;6.10;;;3.47;;
44842;SDS011;31884;52.538;13.820;2023-08-01T02:36:26;4.60;;;3.53;;
44842;SDS011;31884;52.538;13.820;2023-08-01T02:38:51;5.28;;;3.47;;
44842;SDS011;31884;52.538;13.820;2023-08-01T02:41:17;3.97;;;3.05;;
44842;SDS011;31884;52.538;13.820;2023-08-01T02:43:42;5.25;;;4.20;;
44842;SDS011;31884;52.538;13.820;2023-08-01T02:46:08;6.68;;;3.85;;
44842;SDS011;31884;52.538;13.820;2023-08-01T02:48:33;5.03;;;3.60;;
44842;SDS011;31884;52.538;13.820;2023-08-01T02:51:00;6.55;;;3.63;;
44842;SDS011;31884;52.538;13.820;2023-08-01T02:53:26;8.77;;;4.68;;
44842;SDS011;31884;52.538;13.820;2023-08-01T02:55:52;7.25;;;4.15;;
44842;SDS011;31884;52.538;13.820;2023-08-01T02:58:17;8.02;;;3.97;;
44842;SDS011;31884;52.538;13.820;2023-08-01T03:00:43;8.30;;;4.05;;
44842;SDS011;31884;52.538;13.820;2023-08-01T03:03:08;6.90;;;4.05;;
44842;SDS011;31884;52.538;13.820;2023-08-01T03:05:37;7.35;;;3.45;;
44842;SDS011;31884;52.538;13.820;2023-08-01T03:08:03;6.18;;;4.10;;
44842;SDS011;31884;52.538;13.820;2023-08-01T03:10:29;6.85;;;4.20;;
44842;SDS011;31884;52.538;13.820;2023-08-01T03:12:54;6.30;;;4.32;;
44842;SDS011;31884;52.538;13.820;2023-08-01T03:15:20;5.40;;;3.63;;
44842;SDS011;31884;52.538;13.820;2023-08-01T03:17:45;10.05;;;4.78;;
44842;SDS011;31884;52.538;13.820;2023-08-01T03:20:11;8.93;;;4.68;;
44842;SDS011;31884;52.538;13.820;2023-08-01T03:22:38;5.93;;;4.15;;
44842;SDS011;31884;52.538;13.820;2023-08-01T03:25:05;7.72;;;4.45;;
44842;SDS011;31884;52.538;13.820;2023-08-01T03:27:32;5.55;;;3.65;;
44842;SDS011;31884;52.538;13.820;2023-08-01T03:30:01;5.88;;;4.03;;
44842;SDS011;31884;52.538;13.820;2023-08-01T03:32:27;7.10;;;3.78;;
44842;SDS011;31884;52.538;13.820;2023-08-01T03:34:53;5.03;;;3.58;;
44842;SDS011;31884;52.538;13.820;2023-08-01T03:37:18;8.90;;;3.90;;
44842;SDS011;31884;52.538;13.820;2023-08-01T03:39:44;6.53;;;3.90;;
44842;SDS011;31884;52.538;13.820;2023-08-01T03:42:10;6.97;;;3.78;;
44842;SDS011;31884;52.538;13.820;2023-08-01T03:44:35;5.97;;;3.53;;
44842;SDS011;31884;52.538;13.820;2023-08-01T03:47:01;5.57;;;3.72;;
44842;SDS011;31884;52.538;13.820;2023-08-01T03:49:26;7.30;;;3.85;;
44842;SDS011;31884;52.538;13.820;2023-08-01T03:51:52;9.25;;;3.90;;
44842;SDS011;31884;52.538;13.820;2023-08-01T03:54:17;8.40;;;4.03;;
44842;SDS011;31884;52.538;13.820;2023-08-01T03:56:43;5.35;;;4.10;;
44842;SDS011;31884;52.538;13.820;2023-08-01T03:59:15;8.63;;;3.83;;
44842;SDS011;31884;52.538;13.820;2023-08-01T04:01:41;6.13;;;3.92;;
44842;SDS011;31884;52.538;13.820;2023-08-01T04:04:08;6.40;;;3.55;;
44842;SDS011;31884;52.538;13.820;2023-08-01T04:06:34;5.35;;;3.83;;
44842;SDS011;31884;52.538;13.820;2023-08-01T04:08:59;8.50;;;4.32;;
44842;SDS011;31884;52.538;13.820;2023-08-01T04:11:25;6.28;;;2.83;;
44842;SDS011;31884;52.538;13.820;2023-08-01T04:13:51;6.00;;;3.95;;
44842;SDS011;31884;52.538;13.820;2023-08-01T04:16:17;8.85;;;3.72;;
44842;SDS011;31884;52.538;13.820;2023-08-01T04:18:42;5.50;;;3.05;;
44842;SDS011;31884;52.538;13.820;2023-08-01T04:21:08;5.03;;;3.40;;
44842;SDS011;31884;52.538;13.820;2023-08-01T04:23:33;6.03;;;3.72;;
44842;SDS011;31884;52.538;13.820;2023-08-01T04:25:59;5.03;;;3.50;;
44842;SDS011;31884;52.538;13.820;2023-08-01T04:28:25;6.18;;;3.70;;
44842;SDS011;31884;52.538;13.820;2023-08-01T04:30:50;4.95;;;3.40;;
44842;SDS011;31884;52.538;13.820;2023-08-01T04:33:16;5.32;;;3.35;;
44842;SDS011;31884;52.538;13.820;2023-08-01T04:35:42;5.40;;;3.42;;
44842;SDS011;31884;52.538;13.820;2023-08-01T04:38:07;5.22;;;2.80;;
44842;SDS011;31884;52.538;13.820;2023-08-01T04:40:33;5.18;;;3.20;;
44842;SDS011;31884;52.538;13.820;2023-08-01T04:43:00;5.63;;;3.00;;
44842;SDS011;31884;52.538;13.820;2023-08-01T04:45:26;6.30;;;3.53;;
44842;SDS011;31884;52.538;13.820;2023-08-01T04:47:52;7.05;;;3.58;;
44842;SDS011;31884;52.538;13.820;2023-08-01T04:50:18;6.88;;;3.45;;
44842;SDS011;31884;52.538;13.820;2023-08-01T04:52:43;5.00;;;3.63;;
44842;SDS011;31884;52.538;13.820;2023-08-01T04:55:09;7.97;;;3.60;;
44842;SDS011;31884;52.538;13.820;2023-08-01T04:57:34;3.03;;;2.58;;
44842;SDS011;31884;52.538;13.820;2023-08-01T04:59:59;4.55;;;3.40;;
44842;SDS011;31884;52.538;13.820;2023-08-01T05:02:25;5.18;;;3.00;;
44842;SDS011;31884;52.538;13.820;2023-08-01T05:04:51;5.15;;;3.40;;
44842;SDS011;31884;52.538;13.820;2023-08-01T05:07:16;4.25;;;2.90;;
44842;SDS011;31884;52.538;13.820;2023-08-01T05:09:42;4.78;;;3.38;;
44842;SDS011;31884;52.538;13.820;2023-08-01T05:12:07;5.38;;;3.45;;
44842;SDS011;31884;52.538;13.820;2023-08-01T05:14:34;4.97;;;3.17;;
44842;SDS011;31884;52.538;13.820;2023-08-01T05:16:59;4.57;;;3.28;;
44842;SDS011;31884;52.538;13.820;2023-08-01T05:19:25;5.13;;;3.03;;
44842;SDS011;31884;52.538;13.820;2023-08-01T05:21:50;4.45;;;3.28;;
44842;SDS011;31884;52.538;13.820;2023-08-01T05:24:16;8.68;;;3.28;;
44842;SDS011;31884;52.538;13.820;2023-08-01T05:26:41;4.30;;;2.75;;
44842;SDS011;31884;52.538;13.820;2023-08-01T05:29:07;5.13;;;2.85;;
44842;SDS011;31884;52.538;13.820;2023-08-01T05:31:32;4.60;;;3.28;;
44842;SDS011;31884;52.538;13.820;2023-08-01T05:33:58;4.60;;;2.90;;
44842;SDS011;31884;52.538;13.820;2023-08-01T05:36:23;3.45;;;2.40;;
44842;SDS011;31884;52.538;13.820;2023-08-01T05:38:49;4.90;;;3.10;;
44842;SDS011;31884;52.538;13.820;2023-08-01T05:41:14;4.88;;;2.78;;
44842;SDS011;31884;52.538;13.820;2023-08-01T05:43:40;4.72;;;3.10;;
44842;SDS011;31884;52.538;13.820;2023-08-01T05:46:05;5.85;;;2.80;;
44842;SDS011;31884;52.538;13.820;2023-08-01T05:48:31;3.17;;;2.58;;
44842;SDS011;31884;52.538;13.820;2023-08-01T05:50:56;3.92;;;2.88;;
44842;SDS011;31884;52.538;13.820;2023-08-01T05:53:23;3.83;;;2.70;;
44842;SDS011;31884;52.538;13.820;2023-08-01T05:55:48;3.63;;;2.47;;
44842;SDS011;31884;52.538;13.820;2023-08-01T05:58:14;4.18;;;2.40;;
44842;SDS011;31884;52.538;13.820;2023-08-01T06:00:40;4.20;;;2.50;;
44842;SDS011;31884;52.538;13.820;2023-08-01T06:03:06;5.35;;;2.42;;
44842;SDS011;31884;52.538;13.820;2023-08-01T06:05:31;4.60;;;2.50;;
44842;SDS011;31884;52.538;13.820;2023-08-01T06:07:57;5.45;;;2.85;;
44842;SDS011;31884;52.538;13.820;2023-08-01T06:10:22;5.82;;;2.75;;
44842;SDS011;31884;52.538;13.820;2023-08-01T06:12:48;2.90;;;2.50;;
44842;SDS011;31884;52.538;13.820;2023-08-01T06:15:13;4.85;;;2.65;;
44842;SDS011;31884;52.538;13.820;2023-08-01T06:17:39;3.58;;;2.72;;
44842;SDS011;31884;52.538;13.820;2023-08-01T06:20:04;3.53;;;2.53;;
44842;SDS011;31884;52.538;13.820;2023-08-01T06:22:31;4.25;;;2.88;;
44842;SDS011;31884;52.538;13.820;2023-08-01T06:24:56;4.60;;;2.80;;
44842;SDS011;31884;52.538;13.820;2023-08-01T06:27:22;3.80;;;2.40;;
44842;SDS011;31884;52.538;13.820;2023-08-01T06:29:47;3.75;;;2.63;;
44842;SDS011;31884;52.538;13.820;2023-08-01T06:32:13;4.85;;;2.83;;
44842;SDS011;31884;52.538;13.820;2023-08-01T06:34:38;6.07;;;2.35;;
44842;SDS011;31884;52.538;13.820;2023-08-01T06:37:05;3.00;;;2.60;;
44842;SDS011;31884;52.538;13.820;2023-08-01T06:39:30;2.65;;;2.17;;
44842;SDS011;31884;52.538;13.820;2023-08-01T06:41:56;4.07;;;2.65;;
44842;SDS011;31884;52.538;13.820;2023-08-01T06:44:21;3.70;;;3.00;;
44842;SDS011;31884;52.538;13.820;2023-08-01T06:46:47;4.45;;;2.28;;
44842;SDS011;31884;52.538;13.820;2023-08-01T06:49:12;2.75;;;2.40;;
44842;SDS011;31884;52.538;13.820;2023-08-01T06:51:38;4.28;;;2.40;;
44842;SDS011;31884;52.538;13.820;2023-08-01T06:54:03;4.00;;;2.80;;
44842;SDS011;31884;52.538;13.820;2023-08-01T06:56:29;3.33;;;2.10;;
44842;SDS011;31884;52.538;13.820;2023-08-01T06:58:54;3.72;;;2.67;;
44842;SDS011;31884;52.538;13.820;2023-08-01T07:01:20;3.42;;;2.42;;
44842;SDS011;31884;52.538;13.820;2023-08-01T07:03:47;4.45;;;2.63;;
44842;SDS011;31884;52.538;13.820;2023-08-01T07:06:13;2.47;;;1.98;;
44842;SDS011;31884;52.538;13.820;2023-08-01T07:08:38;2.90;;;2.45;;
44842;SDS011;31884;52.538;13.820;2023-08-01T07:11:04;3.33;;;2.38;;
44842;SDS011;31884;52.538;13.820;2023-08-01T07:13:29;4.03;;;2.00;;
44842;SDS011;31884;52.538;13.820;2023-08-01T07:15:55;3.38;;;2.05;;
44842;SDS011;31884;52.538;13.820;2023-08-01T07:18:20;4.30;;;2.60;;
44842;SDS011;31884;52.538;13.820;2023-08-01T07:20:46;4.38;;;2.85;;
44842;SDS011;31884;52.538;13.820;2023-08-01T07:23:11;5.05;;;2.78;;
44842;SDS011;31884;52.538;13.820;2023-08-01T07:25:37;2.70;;;2.10;;
44842;SDS011;31884;52.538;13.820;2023-08-01T07:28:02;3.35;;;2.55;;
44842;SDS011;31884;52.538;13.820;2023-08-01T07:30:28;2.42;;;1.95;;
44842;SDS011;31884;52.538;13.820;2023-08-01T07:32:54;3.55;;;2.47;;
44842;SDS011;31884;52.538;13.820;2023-08-01T07:35:19;3.08;;;2.30;;
44842;SDS011;31884;52.538;13.820;2023-08-01T07:37:45;4.60;;;2.47;;
44842;SDS011;31884;52.538;13.820;2023-08-01T07:40:10;2.83;;;2.20;;
44842;SDS011;31884;52.538;13.820;2023-08-01T07:42:36;2.72;;;2.22;;
44842;SDS011;31884;52.538;13.820;2023-08-01T07:45:01;3.13;;;2.30;;
44842;SDS011;31884;52.538;13.820;2023-08-01T07:47:27;4.68;;;2.30;;
44842;SDS011;31884;52.538;13.820;2023-08-01T07:49:52;3.00;;;2.33;;
44842;SDS011;31884;52.538;13.820;2023-08-01T07:52:18;2.90;;;2.40;;
44842;SDS011;31884;52.538;13.820;2023-08-01T07:54:43;3.67;;;2.22;;
44842;SDS011;31884;52.538;13.820;2023-08-01T07:57:09;5.72;;;2.50;;
44842;SDS011;31884;52.538;13.820;2023-08-01T07:59:34;2.70;;;2.30;;
44842;SDS011;31884;52.538;13.820;2023-08-01T08:02:00;2.85;;;2.35;;
44842;SDS011;31884;52.538;13.820;2023-08-01T08:04:25;2.85;;;1.98;;
44842;SDS011;31884;52.538;13.820;2023-08-01T08:06:51;4.03;;;2.42;;
44842;SDS011;31884;52.538;13.820;2023-08-01T08:09:17;5.03;;;2.50;;
44842;SDS011;31884;52.538;13.820;2023-08-01T08:11:42;3.95;;;2.50;;
44842;SDS011;31884;52.538;13.820;2023-08-01T08:14:08;4.45;;;2.70;;
44842;SDS011;31884;52.538;13.820;2023-08-01T08:16:34;2.92;;;2.28;;
44842;SDS011;31884;52.538;13.820;2023-08-01T08:18:59;3.20;;;2.53;;
44842;SDS011;31884;52.538;13.820;2023-08-01T08:21:25;2.85;;;2.47;;
44842;SDS011;31884;52.538;13.820;2023-08-01T08:23:50;2.65;;;1.83;;
44842;SDS011;31884;52.538;13.820;2023-08-01T08:26:16;3.53;;;2.45;;
44842;SDS011;31884;52.538;13.820;2023-08-01T08:28:41;2.97;;;1.88;;
44842;SDS011;31884;52.538;13.820;2023-08-01T08:31:07;2.85;;;2.25;;
44842;SDS011;31884;52.538;13.820;2023-08-01T08:33:33;2.05;;;1.85;;
44842;SDS011;31884;52.538;13.820;2023-08-01T08:35:58;2.40;;;2.00;;
44842;SDS011;31884;52.538;13.820;2023-08-01T08:38:24;2.40;;;2.20;;
44842;SDS011;31884;52.538;13.820;2023-08-01T08:41:05;3.55;;;2.20;;
44842;SDS011;31884;52.538;13.820;2023-08-01T08:43:51;2.47;;;2.10;;
44842;SDS011;31884;52.538;13.820;2023-08-01T08:46:21;3.58;;;1.70;;
44842;SDS011;31884;52.538;13.820;2023-08-01T08:48:52;2.25;;;2.03;;
44842;SDS011;31884;52.538;13.820;2023-08-01T08:51:18;2.95;;;1.70;;
44842;SDS011;31884;52.538;13.820;2023-08-01T08:53:46;2.70;;;1.85;;
44842;SDS011;31884;52.538;13.820;2023-08-01T08:56:14;3.78;;;1.67;;
44842;SDS011;31884;52.538;13.820;2023-08-01T08:58:40;2.13;;;1.60;;
44842;SDS011;31884;52.538;13.820;2023-08-01T09:01:07;1.52;;;1.35;;
44842;SDS011;31884;52.538;13.820;2023-08-01T09:03:33;2.42;;;1.65;;
44842;SDS011;31884;52.538;13.820;2023-08-01T09:06:09;2.10;;;1.55;;
44842;SDS011;31884;52.538;13.820;2023-08-01T09:08:39;4.43;;;1.58;;
44842;SDS011;31884;52.538;13.820;2023-08-01T09:11:09;1.88;;;1.30;;
44842;SDS011;31884;52.538;13.820;2023-08-01T09:13:34;3.72;;;1.63;;
44842;SDS011;31884;52.538;13.820;2023-08-01T09:16:01;2.00;;;1.38;;
44842;SDS011;31884;52.538;13.820;2023-08-01T09:18:27;1.58;;;1.27;;
44842;SDS011;31884;52.538;13.820;2023-08-01T09:20:53;1.58;;;1.33;;
44842;SDS011;31884;52.538;13.820;2023-08-01T09:23:18;1.45;;;1.35;;
44842;SDS011;31884;52.538;13.820;2023-08-01T09:25:44;3.80;;;1.48;;
44842;SDS011;31884;52.538;13.820;2023-08-01T09:28:20;1.00;;;0.90;;
44842;SDS011;31884;52.538;13.820;2023-08-01T09:30:50;2.28;;;1.50;;
44842;SDS011;31884;52.538;13.820;2023-08-01T09:33:20;1.27;;;1.17;;
44842;SDS011;31884;52.538;13.820;2023-08-01T09:35:46;1.77;;;1.60;;
44842;SDS011;31884;52.538;13.820;2023-08-01T09:38:12;1.92;;;1.48;;
44842;SDS011;31884;52.538;13.820;2023-08-01T09:40:39;2.95;;;1.30;;
44842;SDS011;31884;52.538;13.820;2023-08-01T09:43:05;2.03;;;1.42;;
44842;SDS011;31884;52.538;13.820;2023-08-01T09:45:31;1.40;;;1.30;;
44842;SDS011;31884;52.538;13.820;2023-08-01T09:47:57;2.80;;;1.58;;
44842;SDS011;31884;52.538;13.820;2023-08-01T09:50:22;3.03;;;1.00;;
44842;SDS011;31884;52.538;13.820;2023-08-01T09:52:49;1.42;;;1.30;;
44842;SDS011;31884;52.538;13.820;2023-08-01T09:55:39;1.20;;;1.10;;
44842;SDS011;31884;52.538;13.820;2023-08-01T09:58:04;1.80;;;1.02;;
44842;SDS011;31884;52.538;13.820;2023-08-01T10:00:32;1.65;;;1.33;;
44842;SDS011;31884;52.538;13.820;2023-08-01T10:02:58;3.45;;;1.02;;
44842;SDS011;31884;52.538;13.820;2023-08-01T10:05:29;0.95;;;0.88;;
44842;SDS011;31884;52.538;13.820;2023-08-01T10:07:56;0.63;;;0.63;;
44842;SDS011;31884;52.538;13.820;2023-08-01T10:10:24;1.67;;;0.85;;
44842;SDS011;31884;52.538;13.820;2023-08-01T10:12:50;1.77;;;1.02;;
44842;SDS011;31884;52.538;13.820;2023-08-01T10:15:16;0.75;;;0.75;;
44842;SDS011;31884;52.538;13.820;2023-08-01T10:17:42;3.72;;;1.00;;
44842;SDS011;31884;52.538;13.820;2023-08-01T10:20:09;2.00;;;0.85;;
44842;SDS011;31884;52.538;13.820;2023-08-01T10:22:36;0.95;;;0.85;;
44842;SDS011;31884;52.538;13.820;2023-08-01T10:25:02;0.57;;;0.52;;
44842;SDS011;31884;52.538;13.820;2023-08-01T10:27:29;0.70;;;0.60;;
44842;SDS011;31884;52.538;13.820;2023-08-01T10:29:58;0.85;;;0.70;;
44842;SDS011;31884;52.538;13.820;2023-08-01T10:32:28;1.02;;;0.70;;
44842;SDS011;31884;52.538;13.820;2023-08-01T10:34:58;0.50;;;0.50;;
44842;SDS011;31884;52.538;13.820;2023-08-01T10:37:24;0.82;;;0.50;;
44842;SDS011;31884;52.538;13.820;2023-08-01T10:39:59;1.52;;;0.70;;
44842;SDS011;31884;52.538;13.820;2023-08-01T10:42:25;0.30;;;0.30;;
44842;SDS011;31884;52.538;13.820;2023-08-01T10:45:01;0.73;;;0.52;;
44842;SDS011;31884;52.538;13.820;2023-08-01T10:47:27;0.50;;;0.50;;
44842;SDS011;31884;52.538;13.820;2023-08-01T10:49:53;1.30;;;0.80;;
44842;SDS011;31884;52.538;13.820;2023-08-01T10:52:25;0.60;;;0.40;;
44842;SDS011;31884;52.538;13.820;2023-08-01T10:54:57;0.93;;;0.50;;
44842;SDS011;31884;52.538;13.820;2023-08-01T10:57:25;0.77;;;0.57;;
44842;SDS011;31884;52.538;13.820;2023-08-01T10:59:52;0.50;;;0.50;;
44842;SDS011;31884;52.538;13.820;2023-08-01T11:02:20;1.52;;;0.52;;
44842;SDS011;31884;52.538;13.820;2023-08-01T11:04:58;0.60;;;0.55;;
44842;SDS011;31884;52.538;13.820;2023-08-01T11:07:25;0.52;;;0.43;;
44842;SDS011;31884;52.538;13.820;2023-08-01T11:10:02;0.45;;;0.45;;
44842;SDS011;31884;52.538;13.820;2023-08-01T11:12:42;1.77;;;0.75;;
44842;SDS011;31884;52.538;13.820;2023-08-01T11:15:09;1.13;;;0.55;;
44842;SDS011;31884;52.538;13.820;2023-08-01T11:17:37;0.60;;;0.50;;
44842;SDS011;31884;52.538;13.820;2023-08-01T11:20:10;0.70;;;0.70;;
44842;SDS011;31884;52.538;13.820;2023-08-01T11:22:37;0.40;;;0.40;;
44842;SDS011;31884;52.538;13.820;2023-08-01T11:25:03;0.40;;;0.40;;
44842;SDS011;31884;52.538;13.820;2023-08-01T11:27:29;0.52;;;0.52;;
44842;SDS011;31884;52.538;13.820;2023-08-01T11:29:55;0.85;;;0.70;;
44842;SDS011;31884;52.538;13.820;2023-08-01T11:32:21;0.77;;;0.50;;
44842;SDS011;31884;52.538;13.820;2023-08-01T11:34:57;0.60;;;0.50;;
44842;SDS011;31884;52.538;13.820;2023-08-01T11:37:25;0.60;;;0.60;;
44842;SDS011;31884;52.538;13.820;2023-08-01T11:39:51;0.57;;;0.50;;
44842;SDS011;31884;52.538;13.820;2023-08-01T11:42:17;1.40;;;0.75;;
44842;SDS011;31884;52.538;13.820;2023-08-01T11:44:45;0.60;;;0.50;;
44842;SDS011;31884;52.538;13.820;2023-08-01T11:47:12;0.75;;;0.65;;
44842;SDS011;31884;52.538;13.820;2023-08-01T11:49:39;1.45;;;0.73;;
44842;SDS011;31884;52.538;13.820;2023-08-01T11:52:09;1.88;;;0.57;;
44842;SDS011;31884;52.538;13.820;2023-08-01T11:54:43;2.45;;;0.70;;
44842;SDS011;31884;52.538;13.820;2023-08-01T11:57:10;0.70;;;0.65;;
44842;SDS011;31884;52.538;13.820;2023-08-01T11:59:45;0.68;;;0.50;;
44842;SDS011;31884;52.538;13.820;2023-08-01T12:02:20;1.85;;;0.50;;
44842;SDS011;31884;52.538;13.820;2023-08-01T12:04:49;0.85;;;0.70;;
44842;SDS011;31884;52.538;13.820;2023-08-01T12:07:15;0.95;;;0.63;;
44842;SDS011;31884;52.538;13.820;2023-08-01T12:09:41;1.65;;;0.80;;
44842;SDS011;31884;52.538;13.820;2023-08-01T12:12:08;0.90;;;0.68;;
44842;SDS011;31884;52.538;13.820;2023-08-01T12:14:38;1.02;;;0.90;;
44842;SDS011;31884;52.538;13.820;2023-08-01T12:17:05;1.77;;;0.90;;
44842;SDS011;31884;52.538;13.820;2023-08-01T12:19:30;0.70;;;0.70;;
44842;SDS011;31884;52.538;13.820;2023-08-01T12:21:58;0.93;;;0.80;;
44842;SDS011;31884;52.538;13.820;2023-08-01T12:24:24;1.58;;;0.90;;
44842;SDS011;31884;52.538;13.820;2023-08-01T12:26:49;1.27;;;0.70;;
44842;SDS011;31884;52.538;13.820;2023-08-01T12:29:15;1.38;;;1.10;;
44842;SDS011;31884;52.538;13.820;2023-08-01T12:31:40;0.75;;;0.75;;
44842;SDS011;31884;52.538;13.820;2023-08-01T12:34:06;1.08;;;0.95;;
44842;SDS011;31884;52.538;13.820;2023-08-01T12:36:31;2.15;;;0.82;;
44842;SDS011;31884;52.538;13.820;2023-08-01T12:38:57;1.25;;;1.15;;
44842;SDS011;31884;52.538;13.820;2023-08-01T12:41:22;1.13;;;1.02;;
44842;SDS011;31884;52.538;13.820;2023-08-01T12:43:48;2.50;;;1.40;;
44842;SDS011;31884;52.538;13.820;2023-08-01T12:46:13;2.45;;;1.30;;
44842;SDS011;31884;52.538;13.820;2023-08-01T12:48:39;1.98;;;1.50;;
44842;SDS011;31884;52.538;13.820;2023-08-01T12:51:04;2.25;;;1.50;;
44842;SDS011;31884;52.538;13.820;2023-08-01T12:53:30;1.65;;;1.42;;
44842;SDS011;31884;52.538;13.820;2023-08-01T12:55:55;2.20;;;1.45;;
44842;SDS011;31884;52.538;13.820;2023-08-01T12:58:21;2.17;;;1.50;;
44842;SDS011;31884;52.538;13.820;2023-08-01T13:00:46;1.63;;;1.52;;
44842;SDS011;31884;52.538;13.820;2023-08-01T13:03:12;4.05;;;1.83;;
44842;SDS011;31884;52.538;13.820;2023-08-01T13:05:38;2.42;;;1.70;;
44842;SDS011;31884;52.538;13.820;2023-08-01T13:08:04;1.73;;;1.60;;
44842;SDS011;31884;52.538;13.820;2023-08-01T13:10:34;2.38;;;1.50;;
44842;SDS011;31884;52.538;13.820;2023-08-01T13:13:01;2.88;;;1.58;;
44842;SDS011;31884;52.538;13.820;2023-08-01T13:15:28;1.63;;;1.52;;
44842;SDS011;31884;52.538;13.820;2023-08-01T13:17:54;1.80;;;1.50;;
44842;SDS011;31884;52.538;13.820;2023-08-01T13:20:20;1.90;;;1.63;;
44842;SDS011;31884;52.538;13.820;2023-08-01T13:22:46;1.67;;;1.58;;
44842;SDS011;31884;52.538;13.820;2023-08-01T13:25:13;2.50;;;1.77;;
44842;SDS011;31884;52.538;13.820;2023-08-01T13:27:39;4.43;;;2.00;;
44842;SDS011;31884;52.538;13.820;2023-08-01T13:30:05;2.50;;;1.77;;
44842;SDS011;31884;52.538;13.820;2023-08-01T13:32:31;2.17;;;1.80;;
44842;SDS011;31884;52.538;13.820;2023-08-01T13:34:57;2.28;;;1.50;;
44842;SDS011;31884;52.538;13.820;2023-08-01T13:37:22;2.15;;;1.83;;
44842;SDS011;31884;52.538;13.820;2023-08-01T13:39:48;3.05;;;1.88;;
44842;SDS011;31884;52.538;13.820;2023-08-01T13:42:13;3.05;;;2.00;;
44842;SDS011;31884;52.538;13.820;2023-08-01T13:44:39;3.08;;;1.65;;
44842;SDS011;31884;52.538;13.820;2023-08-01T13:47:05;2.70;;;2.28;;
44842;SDS011;31884;52.538;13.820;2023-08-01T13:49:31;2.65;;;1.92;;
44842;SDS011;31884;52.538;13.820;2023-08-01T13:51:56;1.92;;;1.75;;
44842;SDS011;31884;52.538;13.820;2023-08-01T13:54:21;2.72;;;2.00;;
44842;SDS011;31884;52.538;13.820;2023-08-01T13:56:47;4.75;;;2.30;;
44842;SDS011;31884;52.538;13.820;2023-08-01T13:59:13;2.05;;;1.77;;
44842;SDS011;31884;52.538;13.820;2023-08-01T14:01:38;5.10;;;2.00;;
44842;SDS011;31884;52.538;13.820;2023-08-01T14:04:04;4.13;;;2.00;;
44842;SDS011;31884;52.538;13.820;2023-08-01T14:06:29;2.78;;;1.83;;
44842;SDS011;31884;52.538;13.820;2023-08-01T14:08:55;2.83;;;1.63;;
44842;SDS011;31884;52.538;13.820;2023-08-01T14:11:20;4.18;;;2.13;;
44842;SDS011;31884;52.538;13.820;2023-08-01T14:13:46;2.80;;;2.30;;
44842;SDS011;31884;52.538;13.820;2023-08-01T14:16:12;2.83;;;1.90;;
44842;SDS011;31884;52.538;13.820;2023-08-01T14:18:37;2.50;;;2.00;;
44842;SDS011;31884;52.538;13.820;2023-08-01T14:21:02;3.30;;;2.05;;
44842;SDS011;31884;52.538;13.820;2023-08-01T14:23:29;1.98;;;1.65;;
44842;SDS011;31884;52.538;13.820;2023-08-01T14:25:57;4.03;;;2.50;;
44842;SDS011;31884;52.538;13.820;2023-08-01T14:28:23;3.08;;;2.13;;